createdAt,value
2024-02-29T00:01:05.973Z,99626.59
2024-02-29T00:06:09.049Z,99615.28
2024-02-29T00:11:14.326Z,99619.38
2024-02-29T00:16:17.747Z,99615.66
2024-02-29T00:21:20.769Z,99610.09
2024-02-29T00:26:25.418Z,99598.00
2024-02-29T00:31:28.317Z,99596.47
2024-02-29T00:36:31.303Z,99595.84
2024-02-29T00:41:35.807Z,99586.94
2024-02-29T00:46:39.558Z,99597.09
2024-02-29T00:51:42.502Z,99589.13
2024-02-29T00:56:46.851Z,99588.91
2024-02-29T01:01:49.961Z,99587.94
2024-02-29T01:06:53.041Z,99578.78
2024-02-29T01:11:57.283Z,99567.66
2024-02-29T01:17:00.229Z,99563.94
2024-02-29T01:22:03.548Z,99558.66
2024-02-29T01:27:08.416Z,99554.97
2024-02-29T01:32:18.656Z,99546.69
2024-02-29T01:37:25.733Z,99541.13
2024-02-29T01:42:30.032Z,99540.84
2024-02-29T01:47:32.947Z,99527.06
2024-02-29T01:52:40.554Z,99520.94
2024-02-29T01:57:45.751Z,99521.88
2024-02-29T02:02:48.950Z,99514.16
2024-02-29T02:07:52.532Z,99506.56
2024-02-29T02:12:56.851Z,99499.97
2024-02-29T02:17:59.795Z,99502.84
2024-02-29T02:23:04.064Z,99493.00
2024-02-29T02:28:07.265Z,99494.78
2024-02-29T02:33:12.112Z,99495.31
2024-02-29T02:38:16.521Z,99494.31
2024-02-29T02:43:19.487Z,99490.56
2024-02-29T02:48:22.515Z,99486.63
2024-02-29T02:53:26.744Z,99484.84
2024-02-29T02:58:29.689Z,99479.66
2024-02-29T03:03:33.211Z,99475.56
2024-02-29T03:08:37.574Z,99470.81
2024-02-29T03:13:40.898Z,99472.59
2024-02-29T03:18:43.846Z,99462.44
2024-02-29T03:23:48.490Z,99470.72
2024-02-29T03:28:51.385Z,99467.69
2024-02-29T03:33:54.285Z,99460.31
2024-02-29T03:38:59.100Z,99460.78
2024-02-29T03:44:02.063Z,99460.22
2024-02-29T03:49:05.289Z,99459.25
2024-02-29T03:54:09.738Z,99462.28
2024-02-29T03:59:12.630Z,99459.53
2024-02-29T04:04:15.622Z,99452.38
2024-02-29T04:09:19.879Z,99457.06
2024-02-29T04:14:22.804Z,99436.25
2024-02-29T04:19:25.681Z,99439.97
2024-02-29T04:24:29.972Z,99427.06
2024-02-29T04:29:32.998Z,99430.50
2024-02-29T04:34:35.900Z,99424.06
2024-02-29T04:39:40.177Z,99420.78
2024-02-29T04:44:43.262Z,99414.50
2024-02-29T04:49:46.151Z,99409.41
2024-02-29T04:54:50.670Z,99422.06
2024-02-29T04:59:53.689Z,99422.44
2024-02-29T05:04:56.596Z,99420.09
2024-02-29T05:10:00.959Z,99418.63
2024-02-29T05:15:04.372Z,99420.16
2024-02-29T05:20:09.037Z,99420.47
2024-02-29T05:25:14.717Z,99412.31
2024-02-29T05:30:17.946Z,99408.06
2024-02-29T05:35:23.678Z,99409.31
2024-02-29T05:40:28.863Z,99405.56
2024-02-29T05:45:31.823Z,99411.28
2024-02-29T05:50:34.770Z,99416.56
2024-02-29T05:55:39.197Z,99417.38
2024-02-29T06:00:42.263Z,99414.22
2024-02-29T06:05:45.196Z,99407.53
2024-02-29T06:10:50.266Z,99409.94
2024-02-29T06:15:53.363Z,99412.13
2024-02-29T06:20:56.274Z,99410.44
2024-02-29T06:26:01.342Z,99412.88
2024-02-29T06:31:04.443Z,99414.13
2024-02-29T06:36:10.134Z,99408.16
2024-02-29T06:41:14.742Z,99416.69
2024-02-29T06:46:18.271Z,99416.69
2024-02-29T06:51:21.315Z,99406.38
2024-02-29T06:56:25.585Z,99404.94
2024-02-29T07:01:28.598Z,99399.56
2024-02-29T07:06:31.707Z,99395.09
2024-02-29T07:11:36.061Z,99390.81
2024-02-29T07:16:39.750Z,99398.00
2024-02-29T07:21:43.488Z,99388.69
2024-02-29T07:26:47.827Z,99383.38
2024-02-29T07:31:54.922Z,99398.47
2024-02-29T07:36:58.100Z,99393.44
2024-02-29T07:42:02.374Z,99396.22
2024-02-29T07:47:05.560Z,99383.34
2024-02-29T07:52:08.461Z,99386.94
2024-02-29T07:57:13.002Z,99384.69
2024-02-29T08:02:15.955Z,99370.00
2024-02-29T08:07:19.267Z,99379.25
2024-02-29T08:12:23.587Z,99371.97
2024-02-29T08:17:28.270Z,99372.88
2024-02-29T08:22:31.351Z,99366.94
2024-02-29T08:27:36.613Z,99363.66
2024-02-29T08:32:39.591Z,99349.88
2024-02-29T08:37:43.825Z,99356.31
2024-02-29T08:42:48.148Z,99334.50
2024-02-29T08:47:51.340Z,99336.38
2024-02-29T08:52:54.335Z,99328.66
2024-02-29T08:57:59.432Z,99327.34
2024-02-29T09:03:02.365Z,99312.38
2024-02-29T09:08:05.563Z,99303.03
2024-02-29T09:13:20.531Z,99301.94
2024-02-29T09:18:32.808Z,99291.19
2024-02-29T09:23:35.693Z,99287.28
2024-02-29T09:28:39.969Z,99277.34
2024-02-29T09:33:43.239Z,99273.84
2024-02-29T09:38:46.316Z,99276.31
2024-02-29T09:43:51.068Z,99271.41
2024-02-29T09:48:54.425Z,99258.16
2024-02-29T09:53:58.592Z,99257.28
2024-02-29T09:59:04.053Z,99239.59
2024-02-29T10:04:07.916Z,99244.16
2024-02-29T10:09:11.153Z,99236.63
2024-02-29T10:14:31.877Z,99233.66
2024-02-29T10:19:34.893Z,99216.50
2024-02-29T10:24:37.836Z,99211.06
2024-02-29T10:29:43.001Z,99203.25
2024-02-29T10:34:47.390Z,99205.81
2024-02-29T10:39:51.055Z,99203.22
2024-02-29T10:44:57.578Z,99192.91
2024-02-29T10:50:05.940Z,99177.16
2024-02-29T10:55:14.261Z,99178.78
2024-02-29T11:00:18.774Z,99162.91
2024-02-29T11:05:22.734Z,99158.16
2024-02-29T11:10:26.098Z,99153.50
2024-02-29T11:15:30.328Z,99152.63
2024-02-29T11:20:35.027Z,99144.81
2024-02-29T11:25:43.452Z,99128.59
2024-02-29T11:30:52.603Z,99121.16
2024-02-29T11:35:57.092Z,99117.03
2024-02-29T11:41:00.001Z,99109.63
2024-02-29T11:46:11.042Z,99109.47
2024-02-29T11:51:13.969Z,99098.63
2024-02-29T11:56:17.227Z,99093.25
2024-02-29T12:01:24.770Z,99077.44
2024-02-29T12:06:28.498Z,99072.16
2024-02-29T12:11:33.670Z,99084.88
2024-02-29T12:16:40.288Z,99080.56
2024-02-29T12:21:44.623Z,99076.59
2024-02-29T12:26:50.031Z,99068.00
2024-02-29T12:31:54.385Z,99060.63
2024-02-29T12:36:58.014Z,99047.53
2024-02-29T12:42:01.319Z,99041.16
2024-02-29T12:47:06.001Z,99040.47
2024-02-29T12:52:08.973Z,99032.59
2024-02-29T12:57:12.271Z,99021.09
2024-02-29T13:02:17.292Z,99007.34
2024-02-29T13:07:20.665Z,99007.06
2024-02-29T13:12:23.683Z,98996.03
2024-02-29T13:17:27.999Z,98994.44
2024-02-29T13:22:30.909Z,98987.97
2024-02-29T13:27:34.297Z,98988.06
2024-02-29T13:32:38.573Z,98972.31
2024-02-29T13:37:42.346Z,98970.78
2024-02-29T13:42:45.847Z,98962.75
2024-02-29T13:47:52.097Z,98953.34
2024-02-29T13:52:55.314Z,98945.66
2024-02-29T13:57:58.447Z,98941.44
2024-02-29T14:03:02.689Z,98922.41
2024-02-29T14:08:06.334Z,98915.56
2024-02-29T14:13:09.268Z,98913.56
2024-02-29T14:18:14.524Z,98895.44
2024-02-29T14:23:17.666Z,98894.53
2024-02-29T14:28:21.185Z,98887.81
2024-02-29T14:33:25.513Z,98881.88
2024-02-29T14:38:28.847Z,98874.78
2024-02-29T14:43:31.797Z,98871.19
2024-02-29T14:48:36.173Z,98857.00
2024-02-29T14:53:39.033Z,98858.66
2024-02-29T14:58:41.941Z,98851.59
2024-02-29T15:03:46.239Z,98846.56
2024-02-29T15:08:49.278Z,98836.91
2024-02-29T15:13:52.251Z,98830.69
2024-02-29T15:18:56.617Z,98826.75
2024-02-29T15:23:59.553Z,98830.88
2024-02-29T15:29:02.529Z,98822.56
2024-02-29T15:34:06.823Z,98826.81
2024-02-29T15:39:09.778Z,98816.59
2024-02-29T15:44:12.699Z,98816.16
2024-02-29T15:49:17.206Z,98801.19
2024-02-29T15:54:20.157Z,98803.09
2024-02-29T15:59:23.158Z,98800.59
2024-02-29T16:04:27.577Z,98790.34
2024-02-29T16:09:31.483Z,98772.81
2024-02-29T16:14:34.473Z,98778.06
2024-02-29T16:19:38.758Z,98769.75
2024-02-29T16:24:41.800Z,98762.78
2024-02-29T16:29:44.826Z,98760.25
2024-02-29T16:34:49.067Z,98754.91
2024-02-29T16:39:52.171Z,98762.03
2024-02-29T16:44:55.942Z,98753.63
2024-02-29T16:50:00.633Z,98747.31
2024-02-29T16:55:03.606Z,98754.25
2024-02-29T17:00:09.888Z,98753.00
2024-02-29T17:05:14.614Z,98749.84
2024-02-29T17:10:17.704Z,98734.47
2024-02-29T17:15:20.797Z,98732.09
2024-02-29T17:20:25.146Z,98720.31
2024-02-29T17:25:28.190Z,98718.63
2024-02-29T17:30:31.099Z,98726.75
2024-02-29T17:35:36.852Z,98705.78
2024-02-29T17:40:39.745Z,98701.88
2024-02-29T17:45:43.065Z,98693.47
2024-02-29T17:50:47.379Z,98686.03
2024-02-29T17:55:50.308Z,98678.16
2024-02-29T18:00:53.332Z,98667.13
2024-02-29T18:05:57.657Z,98659.28
2024-02-29T18:11:00.624Z,98650.69
2024-02-29T18:16:03.617Z,98646.28
2024-02-29T18:21:08.110Z,98635.44
2024-02-29T18:26:12.931Z,98625.22
2024-02-29T18:31:15.947Z,98615.09
2024-02-29T18:36:20.232Z,98607.59
2024-02-29T18:41:23.211Z,98602.81
2024-02-29T18:46:26.123Z,98594.38
2024-02-29T18:51:30.599Z,98598.53
2024-02-29T18:56:33.524Z,98581.66
2024-02-29T19:01:36.699Z,98581.69
2024-02-29T19:06:41.152Z,98579.81
2024-02-29T19:11:44.087Z,98574.56
2024-02-29T19:16:47.136Z,98566.84
2024-02-29T19:21:51.474Z,98555.84
2024-02-29T19:26:54.671Z,98545.91
2024-02-29T19:31:57.616Z,98547.72
2024-02-29T19:37:01.956Z,98541.47
2024-02-29T19:42:05.339Z,98532.16
2024-02-29T19:47:08.461Z,98523.25
2024-02-29T19:52:12.789Z,98513.06
2024-02-29T19:57:15.732Z,98516.19
2024-02-29T20:02:18.660Z,98504.81
2024-02-29T20:07:23.374Z,98491.22
2024-02-29T20:12:26.422Z,98493.09
2024-02-29T20:17:29.288Z,98486.34
2024-02-29T20:22:33.571Z,98473.78
2024-02-29T20:27:37.249Z,98464.94
2024-02-29T20:32:41.527Z,98463.50
2024-02-29T20:37:46.435Z,98453.91
2024-02-29T20:42:49.597Z,98451.25
2024-02-29T20:47:52.593Z,98442.34
2024-02-29T20:52:56.912Z,98435.53
2024-02-29T20:57:59.870Z,98432.25
2024-02-29T21:03:04.166Z,98423.16
2024-02-29T21:08:08.700Z,98415.59
2024-02-29T21:13:13.569Z,98408.94
2024-02-29T21:18:17.212Z,98393.38
2024-02-29T21:23:21.549Z,98382.84
2024-02-29T21:28:24.455Z,98382.16
2024-02-29T21:33:27.462Z,98371.16
2024-02-29T21:38:31.827Z,98375.09
2024-02-29T21:43:35.004Z,98367.53
2024-02-29T21:48:37.986Z,98368.13
2024-02-29T21:53:42.254Z,98367.31
2024-02-29T21:58:45.282Z,98365.16
2024-02-29T22:03:48.243Z,98352.88
2024-02-29T22:08:52.736Z,98344.09
2024-02-29T22:13:57.231Z,98347.09
2024-02-29T22:19:00.186Z,98342.91
2024-02-29T22:24:05.408Z,98339.78
2024-02-29T22:29:08.332Z,98318.09
2024-02-29T22:34:11.982Z,98313.19
2024-02-29T22:39:16.305Z,98296.72
2024-02-29T22:44:19.182Z,98286.41
2024-02-29T22:49:22.259Z,98288.22
2024-02-29T22:54:26.551Z,98279.78
2024-02-29T22:59:29.498Z,98280.78
2024-02-29T23:04:33.617Z,98279.78
2024-02-29T23:09:37.920Z,98273.72
2024-02-29T23:14:40.941Z,98272.13
2024-02-29T23:19:43.923Z,98269.69
2024-02-29T23:24:49.075Z,98259.19
2024-02-29T23:29:52.002Z,98247.47
2024-02-29T23:34:55.332Z,98251.13
2024-02-29T23:39:59.661Z,98246.84
2024-02-29T23:45:02.588Z,98245.06
2024-02-29T23:50:06.801Z,98236.97
2024-02-29T23:55:11.893Z,98224.16
